KAZE

Hazlehurst Airport

Hazlehurst, Georgia, USA
METAR KAZE 212255Z AUTO 22007KT 10SM CLR 28/22 A3002 RMK AO2 T02840217
Observed Flight Rules
Aug-21 @ 22:55 UTC (52 minutes ago) Visual Flight Rules
Wind Visibility Clouds
220° at 7 knots 10 miles
  • Clear skies
Temperatures Readings
Current 28°C / 82°F
Dewpoint 22°C / 72°F
Humidity 70%
Altimeter 30.02" Hg
Pressure 1017 hPa
Elevation 78
METAR KAZE 212255Z AUTO 22007KT 10SM CLR 28/22 A3002 RMK AO2 T02840217
Observed Flight Rules
Aug-21 @ 22:55 UTC
(52 minutes ago)
VFR
Wind Visibility
220° at 7 knots 10 miles
Clouds
  • Clear skies
Temperature Dewpoint
28°C / 82°F 22°C / 72°F
Humidity Altimeter Pressure
70% 30.02" Hg 1017 hPa